sensor_id;sensor_type;location;lat;lon;timestamp;P1;durP1;ratioP1;P2;durP2;ratioP2
64894;SDS011;51588;53.702;10.208;2022-12-29T00:00:52;1.80;;;1.50;;
64894;SDS011;51588;53.702;10.208;2022-12-29T00:03:19;1.50;;;1.40;;
64894;SDS011;51588;53.702;10.208;2022-12-29T00:05:45;1.60;;;1.30;;
64894;SDS011;51588;53.702;10.208;2022-12-29T00:08:19;2.17;;;1.70;;
64894;SDS011;51588;53.702;10.208;2022-12-29T00:11:04;1.87;;;1.47;;
64894;SDS011;51588;53.702;10.208;2022-12-29T00:13:31;1.63;;;1.53;;
64894;SDS011;51588;53.702;10.208;2022-12-29T00:16:15;1.47;;;1.33;;
64894;SDS011;51588;53.702;10.208;2022-12-29T00:18:42;2.83;;;1.60;;
64894;SDS011;51588;53.702;10.208;2022-12-29T00:21:08;1.60;;;1.50;;
64894;SDS011;51588;53.702;10.208;2022-12-29T00:23:54;2.73;;;1.70;;
64894;SDS011;51588;53.702;10.208;2022-12-29T00:26:47;1.30;;;1.20;;
64894;SDS011;51588;53.702;10.208;2022-12-29T00:29:52;3.77;;;1.70;;
64894;SDS011;51588;53.702;10.208;2022-12-29T00:32:35;2.40;;;1.60;;
64894;SDS011;51588;53.702;10.208;2022-12-29T00:35:22;1.93;;;1.73;;
64894;SDS011;51588;53.702;10.208;2022-12-29T00:37:49;1.53;;;1.40;;
64894;SDS011;51588;53.702;10.208;2022-12-29T00:40:33;1.93;;;1.70;;
64894;SDS011;51588;53.702;10.208;2022-12-29T00:43:13;1.40;;;1.30;;
64894;SDS011;51588;53.702;10.208;2022-12-29T00:45:58;2.13;;;1.80;;
64894;SDS011;51588;53.702;10.208;2022-12-29T00:48:25;1.83;;;1.60;;
64894;SDS011;51588;53.702;10.208;2022-12-29T00:51:09;1.30;;;1.20;;
64894;SDS011;51588;53.702;10.208;2022-12-29T00:53:35;1.53;;;1.43;;
64894;SDS011;51588;53.702;10.208;2022-12-29T00:56:02;2.20;;;1.53;;
64894;SDS011;51588;53.702;10.208;2022-12-29T00:58:28;2.70;;;1.60;;
64894;SDS011;51588;53.702;10.208;2022-12-29T01:01:01;2.07;;;1.40;;
64894;SDS011;51588;53.702;10.208;2022-12-29T01:03:28;2.33;;;1.60;;
64894;SDS011;51588;53.702;10.208;2022-12-29T01:05:54;1.90;;;1.47;;
64894;SDS011;51588;53.702;10.208;2022-12-29T01:08:21;2.23;;;1.97;;
64894;SDS011;51588;53.702;10.208;2022-12-29T01:10:57;1.67;;;1.57;;
64894;SDS011;51588;53.702;10.208;2022-12-29T01:13:22;1.73;;;1.50;;
64894;SDS011;51588;53.702;10.208;2022-12-29T01:15:49;1.97;;;1.27;;
64894;SDS011;51588;53.702;10.208;2022-12-29T01:18:17;1.60;;;1.40;;
64894;SDS011;51588;53.702;10.208;2022-12-29T01:20:43;2.77;;;1.60;;
64894;SDS011;51588;53.702;10.208;2022-12-29T01:23:10;1.93;;;1.50;;
64894;SDS011;51588;53.702;10.208;2022-12-29T01:25:36;1.30;;;1.20;;
64894;SDS011;51588;53.702;10.208;2022-12-29T01:28:03;1.50;;;1.40;;
64894;SDS011;51588;53.702;10.208;2022-12-29T01:30:44;1.80;;;1.53;;
64894;SDS011;51588;53.702;10.208;2022-12-29T01:33:11;1.70;;;1.60;;
64894;SDS011;51588;53.702;10.208;2022-12-29T01:35:39;1.73;;;1.50;;
64894;SDS011;51588;53.702;10.208;2022-12-29T01:38:05;1.53;;;1.43;;
64894;SDS011;51588;53.702;10.208;2022-12-29T01:40:32;1.80;;;1.40;;
64894;SDS011;51588;53.702;10.208;2022-12-29T01:42:59;1.53;;;1.37;;
64894;SDS011;51588;53.702;10.208;2022-12-29T01:45:25;1.60;;;1.30;;
64894;SDS011;51588;53.702;10.208;2022-12-29T01:47:53;5.60;;;1.50;;
64894;SDS011;51588;53.702;10.208;2022-12-29T01:50:25;1.70;;;1.60;;
64894;SDS011;51588;53.702;10.208;2022-12-29T01:52:55;1.70;;;1.60;;
64894;SDS011;51588;53.702;10.208;2022-12-29T01:55:23;1.63;;;1.50;;
64894;SDS011;51588;53.702;10.208;2022-12-29T01:57:50;1.50;;;1.30;;
64894;SDS011;51588;53.702;10.208;2022-12-29T02:00:17;1.30;;;1.20;;
64894;SDS011;51588;53.702;10.208;2022-12-29T02:02:44;1.87;;;1.67;;
64894;SDS011;51588;53.702;10.208;2022-12-29T02:05:13;1.40;;;1.30;;
64894;SDS011;51588;53.702;10.208;2022-12-29T02:07:40;1.53;;;1.43;;
64894;SDS011;51588;53.702;10.208;2022-12-29T02:10:09;1.77;;;1.67;;
64894;SDS011;51588;53.702;10.208;2022-12-29T02:12:35;1.73;;;1.60;;
64894;SDS011;51588;53.702;10.208;2022-12-29T02:15:02;1.70;;;1.60;;
64894;SDS011;51588;53.702;10.208;2022-12-29T02:17:47;2.60;;;1.60;;
64894;SDS011;51588;53.702;10.208;2022-12-29T02:20:29;1.50;;;1.40;;
64894;SDS011;51588;53.702;10.208;2022-12-29T02:23:06;1.60;;;1.50;;
64894;SDS011;51588;53.702;10.208;2022-12-29T02:25:54;1.43;;;1.33;;
64894;SDS011;51588;53.702;10.208;2022-12-29T02:28:31;1.93;;;1.70;;
64894;SDS011;51588;53.702;10.208;2022-12-29T02:31:08;2.27;;;1.60;;
64894;SDS011;51588;53.702;10.208;2022-12-29T02:33:41;2.60;;;1.30;;
64894;SDS011;51588;53.702;10.208;2022-12-29T02:36:12;1.70;;;1.60;;
64894;SDS011;51588;53.702;10.208;2022-12-29T02:38:49;1.53;;;1.43;;
64894;SDS011;51588;53.702;10.208;2022-12-29T02:41:19;1.67;;;1.57;;
64894;SDS011;51588;53.702;10.208;2022-12-29T02:43:48;1.60;;;1.50;;
64894;SDS011;51588;53.702;10.208;2022-12-29T02:46:19;2.37;;;1.57;;
64894;SDS011;51588;53.702;10.208;2022-12-29T02:48:51;1.57;;;1.47;;
64894;SDS011;51588;53.702;10.208;2022-12-29T02:51:20;2.07;;;1.20;;
64894;SDS011;51588;53.702;10.208;2022-12-29T02:53:47;1.40;;;1.30;;
64894;SDS011;51588;53.702;10.208;2022-12-29T02:56:31;1.60;;;1.50;;
64894;SDS011;51588;53.702;10.208;2022-12-29T02:58:58;1.50;;;1.40;;
64894;SDS011;51588;53.702;10.208;2022-12-29T03:01:29;1.70;;;1.60;;
64894;SDS011;51588;53.702;10.208;2022-12-29T03:04:01;4.20;;;1.70;;
64894;SDS011;51588;53.702;10.208;2022-12-29T03:06:40;1.53;;;1.37;;
64894;SDS011;51588;53.702;10.208;2022-12-29T03:09:19;1.57;;;1.47;;
64894;SDS011;51588;53.702;10.208;2022-12-29T03:11:49;2.10;;;1.60;;
64894;SDS011;51588;53.702;10.208;2022-12-29T03:14:55;1.50;;;1.40;;
64894;SDS011;51588;53.702;10.208;2022-12-29T03:17:45;1.60;;;1.50;;
64894;SDS011;51588;53.702;10.208;2022-12-29T03:20:14;1.40;;;1.30;;
64894;SDS011;51588;53.702;10.208;2022-12-29T03:22:42;1.63;;;1.40;;
64894;SDS011;51588;53.702;10.208;2022-12-29T03:25:13;1.90;;;1.30;;
64894;SDS011;51588;53.702;10.208;2022-12-29T03:27:41;1.77;;;1.67;;
64894;SDS011;51588;53.702;10.208;2022-12-29T03:30:09;2.63;;;1.60;;
64894;SDS011;51588;53.702;10.208;2022-12-29T03:32:37;2.50;;;1.40;;
64894;SDS011;51588;53.702;10.208;2022-12-29T03:35:06;1.93;;;1.40;;
64894;SDS011;51588;53.702;10.208;2022-12-29T03:37:34;1.30;;;1.20;;
64894;SDS011;51588;53.702;10.208;2022-12-29T03:40:02;1.67;;;1.43;;
64894;SDS011;51588;53.702;10.208;2022-12-29T03:42:30;1.40;;;1.30;;
64894;SDS011;51588;53.702;10.208;2022-12-29T03:44:57;1.33;;;1.23;;
64894;SDS011;51588;53.702;10.208;2022-12-29T03:47:24;1.30;;;1.20;;
64894;SDS011;51588;53.702;10.208;2022-12-29T03:49:50;1.50;;;1.37;;
64894;SDS011;51588;53.702;10.208;2022-12-29T03:52:18;1.40;;;1.20;;
64894;SDS011;51588;53.702;10.208;2022-12-29T03:54:45;1.87;;;1.60;;
64894;SDS011;51588;53.702;10.208;2022-12-29T03:57:12;1.40;;;1.30;;
64894;SDS011;51588;53.702;10.208;2022-12-29T03:59:38;1.50;;;1.37;;
64894;SDS011;51588;53.702;10.208;2022-12-29T04:02:04;1.40;;;1.30;;
64894;SDS011;51588;53.702;10.208;2022-12-29T04:04:31;1.40;;;1.30;;
64894;SDS011;51588;53.702;10.208;2022-12-29T04:06:57;1.67;;;1.50;;
64894;SDS011;51588;53.702;10.208;2022-12-29T04:09:44;1.57;;;1.40;;
64894;SDS011;51588;53.702;10.208;2022-12-29T04:12:10;1.40;;;1.30;;
64894;SDS011;51588;53.702;10.208;2022-12-29T04:14:37;2.03;;;1.83;;
64894;SDS011;51588;53.702;10.208;2022-12-29T04:17:03;1.57;;;1.40;;
64894;SDS011;51588;53.702;10.208;2022-12-29T04:19:29;1.40;;;1.30;;
64894;SDS011;51588;53.702;10.208;2022-12-29T04:21:56;1.30;;;1.20;;
64894;SDS011;51588;53.702;10.208;2022-12-29T04:24:22;1.50;;;1.40;;
64894;SDS011;51588;53.702;10.208;2022-12-29T04:26:50;1.97;;;1.43;;
64894;SDS011;51588;53.702;10.208;2022-12-29T04:29:16;1.50;;;1.40;;
64894;SDS011;51588;53.702;10.208;2022-12-29T04:31:43;1.53;;;1.40;;
64894;SDS011;51588;53.702;10.208;2022-12-29T04:34:09;2.07;;;1.40;;
64894;SDS011;51588;53.702;10.208;2022-12-29T04:36:36;1.70;;;1.60;;
64894;SDS011;51588;53.702;10.208;2022-12-29T04:39:03;1.60;;;1.40;;
64894;SDS011;51588;53.702;10.208;2022-12-29T04:41:30;3.00;;;1.47;;
64894;SDS011;51588;53.702;10.208;2022-12-29T04:43:58;1.97;;;1.40;;
64894;SDS011;51588;53.702;10.208;2022-12-29T04:46:39;1.67;;;1.57;;
64894;SDS011;51588;53.702;10.208;2022-12-29T04:49:06;1.30;;;1.20;;
64894;SDS011;51588;53.702;10.208;2022-12-29T04:51:39;4.50;;;1.40;;
64894;SDS011;51588;53.702;10.208;2022-12-29T04:54:05;1.40;;;1.30;;
64894;SDS011;51588;53.702;10.208;2022-12-29T04:56:32;1.63;;;1.30;;
64894;SDS011;51588;53.702;10.208;2022-12-29T04:59:00;1.47;;;1.30;;
64894;SDS011;51588;53.702;10.208;2022-12-29T05:01:38;2.40;;;1.50;;
64894;SDS011;51588;53.702;10.208;2022-12-29T05:04:05;1.40;;;1.20;;
64894;SDS011;51588;53.702;10.208;2022-12-29T05:06:40;1.33;;;1.23;;
64894;SDS011;51588;53.702;10.208;2022-12-29T05:09:06;1.87;;;1.30;;
64894;SDS011;51588;53.702;10.208;2022-12-29T05:11:33;1.50;;;1.40;;
64894;SDS011;51588;53.702;10.208;2022-12-29T05:14:00;1.33;;;1.23;;
64894;SDS011;51588;53.702;10.208;2022-12-29T05:16:39;1.23;;;1.13;;
64894;SDS011;51588;53.702;10.208;2022-12-29T05:19:05;1.93;;;1.73;;
64894;SDS011;51588;53.702;10.208;2022-12-29T05:21:32;3.27;;;1.40;;
64894;SDS011;51588;53.702;10.208;2022-12-29T05:23:58;1.57;;;1.10;;
64894;SDS011;51588;53.702;10.208;2022-12-29T05:26:24;2.23;;;1.30;;
64894;SDS011;51588;53.702;10.208;2022-12-29T05:28:51;1.50;;;1.30;;
64894;SDS011;51588;53.702;10.208;2022-12-29T05:31:19;1.33;;;1.23;;
64894;SDS011;51588;53.702;10.208;2022-12-29T05:33:45;4.03;;;1.33;;
64894;SDS011;51588;53.702;10.208;2022-12-29T05:36:12;1.20;;;1.10;;
64894;SDS011;51588;53.702;10.208;2022-12-29T05:38:38;1.30;;;1.20;;
64894;SDS011;51588;53.702;10.208;2022-12-29T05:41:05;1.57;;;1.33;;
64894;SDS011;51588;53.702;10.208;2022-12-29T05:43:31;1.40;;;1.30;;
64894;SDS011;51588;53.702;10.208;2022-12-29T05:45:58;1.57;;;1.47;;
64894;SDS011;51588;53.702;10.208;2022-12-29T05:48:26;1.40;;;1.10;;
64894;SDS011;51588;53.702;10.208;2022-12-29T05:50:52;1.30;;;1.20;;
64894;SDS011;51588;53.702;10.208;2022-12-29T05:53:19;1.30;;;1.20;;
64894;SDS011;51588;53.702;10.208;2022-12-29T05:55:46;1.60;;;1.10;;
64894;SDS011;51588;53.702;10.208;2022-12-29T05:58:12;1.30;;;1.20;;
64894;SDS011;51588;53.702;10.208;2022-12-29T06:00:57;1.23;;;1.13;;
64894;SDS011;51588;53.702;10.208;2022-12-29T06:03:23;1.40;;;1.30;;
64894;SDS011;51588;53.702;10.208;2022-12-29T06:06:09;1.30;;;1.20;;
64894;SDS011;51588;53.702;10.208;2022-12-29T06:08:36;1.60;;;1.20;;
64894;SDS011;51588;53.702;10.208;2022-12-29T06:11:02;1.47;;;1.37;;
64894;SDS011;51588;53.702;10.208;2022-12-29T06:13:29;1.30;;;1.20;;
64894;SDS011;51588;53.702;10.208;2022-12-29T06:15:55;1.40;;;1.23;;
64894;SDS011;51588;53.702;10.208;2022-12-29T06:18:21;1.33;;;1.23;;
64894;SDS011;51588;53.702;10.208;2022-12-29T06:20:48;1.20;;;1.10;;
64894;SDS011;51588;53.702;10.208;2022-12-29T06:23:16;1.63;;;1.30;;
64894;SDS011;51588;53.702;10.208;2022-12-29T06:25:43;1.47;;;1.20;;
64894;SDS011;51588;53.702;10.208;2022-12-29T06:28:09;1.30;;;1.20;;
64894;SDS011;51588;53.702;10.208;2022-12-29T06:30:45;1.20;;;1.10;;
64894;SDS011;51588;53.702;10.208;2022-12-29T06:33:13;1.10;;;1.00;;
64894;SDS011;51588;53.702;10.208;2022-12-29T06:35:39;1.40;;;1.30;;
64894;SDS011;51588;53.702;10.208;2022-12-29T06:38:05;1.40;;;1.30;;
64894;SDS011;51588;53.702;10.208;2022-12-29T06:40:33;1.30;;;1.20;;
64894;SDS011;51588;53.702;10.208;2022-12-29T06:43:00;1.20;;;1.10;;
64894;SDS011;51588;53.702;10.208;2022-12-29T06:45:45;1.33;;;1.23;;
64894;SDS011;51588;53.702;10.208;2022-12-29T06:48:11;1.23;;;1.10;;
64894;SDS011;51588;53.702;10.208;2022-12-29T06:50:56;1.10;;;1.00;;
64894;SDS011;51588;53.702;10.208;2022-12-29T06:53:22;2.80;;;1.10;;
64894;SDS011;51588;53.702;10.208;2022-12-29T06:55:50;1.13;;;1.03;;
64894;SDS011;51588;53.702;10.208;2022-12-29T06:58:17;1.37;;;1.00;;
64894;SDS011;51588;53.702;10.208;2022-12-29T07:01:01;1.20;;;1.10;;
64894;SDS011;51588;53.702;10.208;2022-12-29T07:03:28;1.33;;;1.23;;
64894;SDS011;51588;53.702;10.208;2022-12-29T07:05:54;1.40;;;1.20;;
64894;SDS011;51588;53.702;10.208;2022-12-29T07:08:23;1.30;;;1.20;;
64894;SDS011;51588;53.702;10.208;2022-12-29T07:10:50;1.33;;;0.80;;
64894;SDS011;51588;53.702;10.208;2022-12-29T07:13:17;1.37;;;1.27;;
64894;SDS011;51588;53.702;10.208;2022-12-29T07:16:04;1.10;;;1.00;;
64894;SDS011;51588;53.702;10.208;2022-12-29T07:18:31;1.13;;;1.03;;
64894;SDS011;51588;53.702;10.208;2022-12-29T07:20:57;1.33;;;1.00;;
64894;SDS011;51588;53.702;10.208;2022-12-29T07:23:23;1.87;;;1.00;;
64894;SDS011;51588;53.702;10.208;2022-12-29T07:25:51;1.10;;;1.00;;
64894;SDS011;51588;53.702;10.208;2022-12-29T07:28:24;1.10;;;0.90;;
64894;SDS011;51588;53.702;10.208;2022-12-29T07:30:50;1.30;;;1.03;;
64894;SDS011;51588;53.702;10.208;2022-12-29T07:33:17;1.10;;;1.00;;
64894;SDS011;51588;53.702;10.208;2022-12-29T07:35:43;0.90;;;0.80;;
64894;SDS011;51588;53.702;10.208;2022-12-29T07:38:10;1.10;;;1.00;;
64894;SDS011;51588;53.702;10.208;2022-12-29T07:40:37;1.10;;;1.00;;
64894;SDS011;51588;53.702;10.208;2022-12-29T07:43:04;1.00;;;0.90;;
64894;SDS011;51588;53.702;10.208;2022-12-29T07:45:49;1.10;;;1.00;;
64894;SDS011;51588;53.702;10.208;2022-12-29T07:48:16;1.03;;;0.93;;
64894;SDS011;51588;53.702;10.208;2022-12-29T07:50:42;1.10;;;1.00;;
64894;SDS011;51588;53.702;10.208;2022-12-29T07:53:09;1.97;;;0.93;;
64894;SDS011;51588;53.702;10.208;2022-12-29T07:55:35;1.10;;;1.00;;
64894;SDS011;51588;53.702;10.208;2022-12-29T07:58:02;1.17;;;1.07;;
64894;SDS011;51588;53.702;10.208;2022-12-29T08:00:29;1.33;;;1.10;;
64894;SDS011;51588;53.702;10.208;2022-12-29T08:02:56;1.17;;;1.07;;
64894;SDS011;51588;53.702;10.208;2022-12-29T08:05:22;0.90;;;0.80;;
64894;SDS011;51588;53.702;10.208;2022-12-29T08:07:49;1.07;;;0.97;;
64894;SDS011;51588;53.702;10.208;2022-12-29T08:10:15;1.10;;;1.00;;
64894;SDS011;51588;53.702;10.208;2022-12-29T08:12:42;1.20;;;1.00;;
64894;SDS011;51588;53.702;10.208;2022-12-29T08:15:09;1.00;;;0.90;;
64894;SDS011;51588;53.702;10.208;2022-12-29T08:17:37;2.10;;;0.90;;
64894;SDS011;51588;53.702;10.208;2022-12-29T08:20:04;1.10;;;1.00;;
64894;SDS011;51588;53.702;10.208;2022-12-29T08:22:30;1.30;;;1.20;;
64894;SDS011;51588;53.702;10.208;2022-12-29T08:24:57;1.73;;;1.20;;
64894;SDS011;51588;53.702;10.208;2022-12-29T08:27:23;2.63;;;1.23;;
64894;SDS011;51588;53.702;10.208;2022-12-29T08:29:50;2.37;;;0.90;;
64894;SDS011;51588;53.702;10.208;2022-12-29T08:32:16;1.30;;;1.00;;
64894;SDS011;51588;53.702;10.208;2022-12-29T08:34:44;1.20;;;1.10;;
64894;SDS011;51588;53.702;10.208;2022-12-29T08:37:10;3.40;;;1.10;;
64894;SDS011;51588;53.702;10.208;2022-12-29T08:39:37;2.37;;;1.50;;
64894;SDS011;51588;53.702;10.208;2022-12-29T08:42:03;3.73;;;1.10;;
64894;SDS011;51588;53.702;10.208;2022-12-29T08:44:31;2.27;;;1.10;;
64894;SDS011;51588;53.702;10.208;2022-12-29T08:46:57;1.60;;;1.23;;
64894;SDS011;51588;53.702;10.208;2022-12-29T08:49:24;1.73;;;1.00;;
64894;SDS011;51588;53.702;10.208;2022-12-29T08:51:52;4.50;;;1.20;;
64894;SDS011;51588;53.702;10.208;2022-12-29T08:54:18;1.10;;;1.00;;
64894;SDS011;51588;53.702;10.208;2022-12-29T08:56:45;1.53;;;1.00;;
64894;SDS011;51588;53.702;10.208;2022-12-29T08:59:11;2.40;;;1.10;;
64894;SDS011;51588;53.702;10.208;2022-12-29T09:01:38;3.03;;;1.10;;
64894;SDS011;51588;53.702;10.208;2022-12-29T09:04:05;2.30;;;1.20;;
64894;SDS011;51588;53.702;10.208;2022-12-29T09:06:38;1.63;;;1.00;;
64894;SDS011;51588;53.702;10.208;2022-12-29T09:09:05;3.20;;;1.00;;
64894;SDS011;51588;53.702;10.208;2022-12-29T09:11:32;1.20;;;1.10;;
64894;SDS011;51588;53.702;10.208;2022-12-29T09:13:58;1.93;;;1.10;;
64894;SDS011;51588;53.702;10.208;2022-12-29T09:16:25;1.30;;;1.10;;
64894;SDS011;51588;53.702;10.208;2022-12-29T09:18:52;1.83;;;1.00;;
64894;SDS011;51588;53.702;10.208;2022-12-29T09:21:18;1.87;;;1.00;;
64894;SDS011;51588;53.702;10.208;2022-12-29T09:23:45;1.50;;;1.20;;
64894;SDS011;51588;53.702;10.208;2022-12-29T09:26:12;1.30;;;1.00;;
64894;SDS011;51588;53.702;10.208;2022-12-29T09:28:39;1.60;;;1.00;;
64894;SDS011;51588;53.702;10.208;2022-12-29T09:31:05;2.10;;;1.10;;
64894;SDS011;51588;53.702;10.208;2022-12-29T09:33:32;2.20;;;1.10;;
64894;SDS011;51588;53.702;10.208;2022-12-29T09:35:59;2.93;;;1.20;;
64894;SDS011;51588;53.702;10.208;2022-12-29T09:38:26;3.00;;;1.53;;
64894;SDS011;51588;53.702;10.208;2022-12-29T09:40:53;4.97;;;1.30;;
64894;SDS011;51588;53.702;10.208;2022-12-29T09:43:32;4.83;;;1.13;;
64894;SDS011;51588;53.702;10.208;2022-12-29T09:46:06;1.60;;;1.20;;
64894;SDS011;51588;53.702;10.208;2022-12-29T09:48:37;4.20;;;1.07;;
64894;SDS011;51588;53.702;10.208;2022-12-29T09:51:08;2.90;;;1.40;;
64894;SDS011;51588;53.702;10.208;2022-12-29T09:53:35;2.93;;;1.60;;
64894;SDS011;51588;53.702;10.208;2022-12-29T09:56:03;1.87;;;1.33;;
64894;SDS011;51588;53.702;10.208;2022-12-29T09:58:35;3.70;;;1.57;;
64894;SDS011;51588;53.702;10.208;2022-12-29T10:01:03;1.30;;;1.10;;
64894;SDS011;51588;53.702;10.208;2022-12-29T10:03:32;4.00;;;1.30;;
64894;SDS011;51588;53.702;10.208;2022-12-29T10:06:04;3.83;;;1.00;;
64894;SDS011;51588;53.702;10.208;2022-12-29T10:08:34;2.50;;;1.37;;
64894;SDS011;51588;53.702;10.208;2022-12-29T10:11:04;2.30;;;1.20;;
64894;SDS011;51588;53.702;10.208;2022-12-29T10:13:36;4.13;;;1.17;;
64894;SDS011;51588;53.702;10.208;2022-12-29T10:16:08;2.60;;;1.20;;
64894;SDS011;51588;53.702;10.208;2022-12-29T10:18:41;5.43;;;1.17;;
64894;SDS011;51588;53.702;10.208;2022-12-29T10:21:13;6.60;;;1.30;;
64894;SDS011;51588;53.702;10.208;2022-12-29T10:23:44;4.60;;;1.60;;
64894;SDS011;51588;53.702;10.208;2022-12-29T10:26:12;6.93;;;1.40;;
64894;SDS011;51588;53.702;10.208;2022-12-29T10:28:42;2.00;;;1.50;;
64894;SDS011;51588;53.702;10.208;2022-12-29T10:31:11;6.90;;;1.90;;
64894;SDS011;51588;53.702;10.208;2022-12-29T10:33:41;10.87;;;3.27;;
64894;SDS011;51588;53.702;10.208;2022-12-29T10:36:12;11.40;;;3.20;;
64894;SDS011;51588;53.702;10.208;2022-12-29T10:38:42;8.43;;;3.50;;
64894;SDS011;51588;53.702;10.208;2022-12-29T10:41:13;10.90;;;3.70;;
64894;SDS011;51588;53.702;10.208;2022-12-29T10:43:43;10.53;;;3.83;;
64894;SDS011;51588;53.702;10.208;2022-12-29T10:46:11;12.37;;;3.53;;
64894;SDS011;51588;53.702;10.208;2022-12-29T10:48:39;9.97;;;4.80;;
64894;SDS011;51588;53.702;10.208;2022-12-29T10:51:06;8.43;;;4.53;;
64894;SDS011;51588;53.702;10.208;2022-12-29T10:53:35;7.50;;;4.60;;
64894;SDS011;51588;53.702;10.208;2022-12-29T10:56:04;11.17;;;5.77;;
64894;SDS011;51588;53.702;10.208;2022-12-29T10:58:35;10.33;;;5.70;;
64894;SDS011;51588;53.702;10.208;2022-12-29T11:01:03;7.10;;;5.50;;
64894;SDS011;51588;53.702;10.208;2022-12-29T11:03:50;9.27;;;5.20;;
64894;SDS011;51588;53.702;10.208;2022-12-29T11:06:24;9.90;;;4.70;;
64894;SDS011;51588;53.702;10.208;2022-12-29T11:08:53;5.90;;;4.53;;
64894;SDS011;51588;53.702;10.208;2022-12-29T11:11:23;6.37;;;4.20;;
64894;SDS011;51588;53.702;10.208;2022-12-29T11:13:55;5.97;;;4.10;;
64894;SDS011;51588;53.702;10.208;2022-12-29T11:16:28;5.83;;;3.53;;
64894;SDS011;51588;53.702;10.208;2022-12-29T11:18:55;8.60;;;4.13;;
64894;SDS011;51588;53.702;10.208;2022-12-29T11:21:26;5.13;;;3.47;;
64894;SDS011;51588;53.702;10.208;2022-12-29T11:23:55;4.80;;;3.20;;
64894;SDS011;51588;53.702;10.208;2022-12-29T11:26:22;4.60;;;2.90;;
64894;SDS011;51588;53.702;10.208;2022-12-29T11:29:03;5.10;;;2.73;;
64894;SDS011;51588;53.702;10.208;2022-12-29T11:31:33;7.73;;;3.13;;
64894;SDS011;51588;53.702;10.208;2022-12-29T11:34:06;5.43;;;2.87;;
64894;SDS011;51588;53.702;10.208;2022-12-29T11:36:35;7.00;;;2.63;;
64894;SDS011;51588;53.702;10.208;2022-12-29T11:39:01;6.23;;;2.37;;
64894;SDS011;51588;53.702;10.208;2022-12-29T11:41:29;5.20;;;2.50;;
64894;SDS011;51588;53.702;10.208;2022-12-29T11:43:56;5.83;;;2.40;;
64894;SDS011;51588;53.702;10.208;2022-12-29T11:46:24;6.13;;;2.40;;
64894;SDS011;51588;53.702;10.208;2022-12-29T11:48:53;5.93;;;2.43;;
64894;SDS011;51588;53.702;10.208;2022-12-29T11:51:23;4.93;;;2.40;;
64894;SDS011;51588;53.702;10.208;2022-12-29T11:53:51;4.40;;;2.70;;
64894;SDS011;51588;53.702;10.208;2022-12-29T11:56:20;6.27;;;2.60;;
64894;SDS011;51588;53.702;10.208;2022-12-29T11:58:47;5.30;;;2.40;;
64894;SDS011;51588;53.702;10.208;2022-12-29T12:01:16;4.47;;;2.30;;
64894;SDS011;51588;53.702;10.208;2022-12-29T12:03:45;4.20;;;2.33;;
64894;SDS011;51588;53.702;10.208;2022-12-29T12:06:15;4.23;;;2.20;;
64894;SDS011;51588;53.702;10.208;2022-12-29T12:08:44;5.77;;;2.10;;
64894;SDS011;51588;53.702;10.208;2022-12-29T12:11:12;2.73;;;2.00;;
64894;SDS011;51588;53.702;10.208;2022-12-29T12:13:41;7.20;;;2.07;;
64894;SDS011;51588;53.702;10.208;2022-12-29T12:16:11;3.03;;;1.70;;
64894;SDS011;51588;53.702;10.208;2022-12-29T12:18:41;7.00;;;2.30;;
64894;SDS011;51588;53.702;10.208;2022-12-29T12:21:12;6.17;;;2.27;;
64894;SDS011;51588;53.702;10.208;2022-12-29T12:23:43;4.20;;;2.40;;
64894;SDS011;51588;53.702;10.208;2022-12-29T12:26:13;3.20;;;1.83;;
64894;SDS011;51588;53.702;10.208;2022-12-29T12:28:44;3.20;;;1.83;;
64894;SDS011;51588;53.702;10.208;2022-12-29T12:31:19;2.17;;;1.70;;
64894;SDS011;51588;53.702;10.208;2022-12-29T12:33:48;4.13;;;1.87;;
64894;SDS011;51588;53.702;10.208;2022-12-29T12:36:26;7.07;;;2.00;;
64894;SDS011;51588;53.702;10.208;2022-12-29T12:38:59;2.40;;;1.60;;
64894;SDS011;51588;53.702;10.208;2022-12-29T12:41:30;7.83;;;1.70;;
64894;SDS011;51588;53.702;10.208;2022-12-29T12:44:00;5.40;;;1.70;;
64894;SDS011;51588;53.702;10.208;2022-12-29T12:49:32;3.20;;;1.80;;
64894;SDS011;51588;53.702;10.208;2022-12-29T12:52:04;2.70;;;1.83;;
64894;SDS011;51588;53.702;10.208;2022-12-29T12:54:38;4.63;;;2.17;;
64894;SDS011;51588;53.702;10.208;2022-12-29T12:57:11;7.17;;;2.90;;
64894;SDS011;51588;53.702;10.208;2022-12-29T13:00:00;3.87;;;2.43;;
64894;SDS011;51588;53.702;10.208;2022-12-29T13:02:41;4.70;;;2.10;;
64894;SDS011;51588;53.702;10.208;2022-12-29T13:07:57;7.53;;;2.20;;
64894;SDS011;51588;53.702;10.208;2022-12-29T13:10:30;6.80;;;2.60;;
64894;SDS011;51588;53.702;10.208;2022-12-29T13:13:09;4.17;;;1.90;;
64894;SDS011;51588;53.702;10.208;2022-12-29T13:15:57;6.93;;;2.57;;
64894;SDS011;51588;53.702;10.208;2022-12-29T13:18:28;3.17;;;1.83;;
64894;SDS011;51588;53.702;10.208;2022-12-29T13:20:59;7.13;;;2.33;;
64894;SDS011;51588;53.702;10.208;2022-12-29T13:23:29;5.10;;;1.87;;
64894;SDS011;51588;53.702;10.208;2022-12-29T13:26:04;3.43;;;2.20;;
64894;SDS011;51588;53.702;10.208;2022-12-29T13:28:34;2.53;;;1.60;;
64894;SDS011;51588;53.702;10.208;2022-12-29T13:31:04;6.17;;;1.70;;
64894;SDS011;51588;53.702;10.208;2022-12-29T13:33:34;8.33;;;2.20;;
64894;SDS011;51588;53.702;10.208;2022-12-29T13:36:02;5.57;;;1.60;;
64894;SDS011;51588;53.702;10.208;2022-12-29T13:38:32;4.23;;;1.70;;
64894;SDS011;51588;53.702;10.208;2022-12-29T13:41:00;4.00;;;1.73;;
64894;SDS011;51588;53.702;10.208;2022-12-29T13:43:29;3.90;;;1.83;;
64894;SDS011;51588;53.702;10.208;2022-12-29T13:45:59;4.03;;;1.60;;
64894;SDS011;51588;53.702;10.208;2022-12-29T13:48:28;3.13;;;2.10;;
64894;SDS011;51588;53.702;10.208;2022-12-29T13:51:00;3.20;;;1.90;;
64894;SDS011;51588;53.702;10.208;2022-12-29T13:53:30;1.93;;;1.50;;
64894;SDS011;51588;53.702;10.208;2022-12-29T13:56:03;3.60;;;2.07;;
64894;SDS011;51588;53.702;10.208;2022-12-29T13:58:34;2.43;;;1.40;;
64894;SDS011;51588;53.702;10.208;2022-12-29T14:01:03;3.27;;;1.70;;
64894;SDS011;51588;53.702;10.208;2022-12-29T14:06:15;5.27;;;1.73;;
64894;SDS011;51588;53.702;10.208;2022-12-29T14:08:42;7.60;;;1.90;;
64894;SDS011;51588;53.702;10.208;2022-12-29T14:11:09;6.43;;;2.30;;
64894;SDS011;51588;53.702;10.208;2022-12-29T14:13:41;4.63;;;2.00;;
64894;SDS011;51588;53.702;10.208;2022-12-29T14:16:09;5.70;;;2.20;;
64894;SDS011;51588;53.702;10.208;2022-12-29T14:18:41;6.63;;;1.80;;
64894;SDS011;51588;53.702;10.208;2022-12-29T14:21:08;8.40;;;2.30;;
64894;SDS011;51588;53.702;10.208;2022-12-29T14:23:37;5.40;;;2.20;;
64894;SDS011;51588;53.702;10.208;2022-12-29T14:26:12;5.17;;;1.90;;
64894;SDS011;51588;53.702;10.208;2022-12-29T14:28:39;5.27;;;2.20;;
64894;SDS011;51588;53.702;10.208;2022-12-29T14:31:18;4.10;;;2.27;;
64894;SDS011;51588;53.702;10.208;2022-12-29T14:36:38;6.13;;;1.93;;
64894;SDS011;51588;53.702;10.208;2022-12-29T14:39:24;6.97;;;2.20;;
64894;SDS011;51588;53.702;10.208;2022-12-29T14:41:59;8.30;;;1.93;;
64894;SDS011;51588;53.702;10.208;2022-12-29T14:44:26;4.20;;;1.77;;
64894;SDS011;51588;53.702;10.208;2022-12-29T14:46:57;3.67;;;2.03;;
64894;SDS011;51588;53.702;10.208;2022-12-29T14:49:25;4.73;;;2.00;;
64894;SDS011;51588;53.702;10.208;2022-12-29T14:51:52;4.03;;;2.00;;
64894;SDS011;51588;53.702;10.208;2022-12-29T14:57:07;3.53;;;1.80;;
64894;SDS011;51588;53.702;10.208;2022-12-29T14:59:34;3.83;;;1.60;;
64894;SDS011;51588;53.702;10.208;2022-12-29T15:02:01;3.70;;;1.63;;
64894;SDS011;51588;53.702;10.208;2022-12-29T15:04:30;4.13;;;1.83;;